createdAt,value
2019-02-18T00:03:44.292Z,3.25
2019-02-18T00:06:12.808Z,3.25
2019-02-18T00:08:41.280Z,3.18
2019-02-18T00:11:09.762Z,3.18
2019-02-18T00:13:38.497Z,3.22
2019-02-18T00:16:06.986Z,3.23
2019-02-18T00:18:35.469Z,3.26
2019-02-18T00:21:03.961Z,3.19
2019-02-18T00:23:32.454Z,3.19
2019-02-18T00:26:00.952Z,3.22
2019-02-18T00:28:29.450Z,3.21
2019-02-18T00:30:57.938Z,3.17
2019-02-18T00:33:26.434Z,3.04
2019-02-18T00:35:54.932Z,3.04
2019-02-18T00:38:23.508Z,3.05
2019-02-18T00:40:51.988Z,3.06
2019-02-18T00:43:20.490Z,3.00
2019-02-18T00:45:49.010Z,2.98
2019-02-18T00:48:17.497Z,2.92
2019-02-18T00:50:45.956Z,2.82
2019-02-18T00:53:14.442Z,2.86
2019-02-18T00:55:42.873Z,2.84
2019-02-18T00:58:11.365Z,2.79
2019-02-18T01:00:39.988Z,2.75
2019-02-18T01:03:08.478Z,2.71
2019-02-18T01:05:36.979Z,2.72
2019-02-18T01:08:05.464Z,2.70
2019-02-18T01:10:33.951Z,2.67
2019-02-18T01:13:02.384Z,2.71
2019-02-18T01:15:30.880Z,2.71
2019-02-18T01:17:59.377Z,2.71
2019-02-18T01:20:27.855Z,2.72
2019-02-18T01:22:56.292Z,2.74
2019-02-18T01:25:24.780Z,2.67
2019-02-18T01:27:53.269Z,2.67
2019-02-18T01:30:21.746Z,2.63
2019-02-18T01:32:50.393Z,2.57
2019-02-18T01:35:18.883Z,2.57
2019-02-18T01:37:47.510Z,2.54
2019-02-18T01:40:16.015Z,2.58
2019-02-18T01:42:44.486Z,2.64
2019-02-18T01:45:15.676Z,2.65
2019-02-18T01:47:44.244Z,2.55
2019-02-18T01:50:14.381Z,2.51
2019-02-18T01:52:42.864Z,2.53
2019-02-18T01:55:12.728Z,2.56
2019-02-18T01:57:41.287Z,2.59
2019-02-18T02:00:14.874Z,2.56
2019-02-18T02:02:43.284Z,2.57
2019-02-18T02:05:13.581Z,2.55
2019-02-18T02:07:42.071Z,2.56
2019-02-18T02:10:12.617Z,2.55
2019-02-18T02:12:41.044Z,2.57
2019-02-18T02:15:12.733Z,2.53
2019-02-18T02:17:41.221Z,2.52
2019-02-18T02:20:09.862Z,2.48
2019-02-18T02:22:38.335Z,2.40
2019-02-18T02:25:06.835Z,2.40
2019-02-18T02:27:35.328Z,2.41
2019-02-18T02:30:04.958Z,2.38
2019-02-18T02:32:33.434Z,2.22
2019-02-18T02:35:01.923Z,2.22
2019-02-18T02:37:30.405Z,2.02
2019-02-18T02:39:58.825Z,1.77
2019-02-18T02:42:27.376Z,1.77
2019-02-18T02:44:55.943Z,1.74
2019-02-18T02:47:24.447Z,1.70
2019-02-18T02:49:52.941Z,1.70
2019-02-18T02:52:21.412Z,1.64
2019-02-18T02:54:49.967Z,1.52
2019-02-18T02:57:18.517Z,1.46
2019-02-18T02:59:46.994Z,1.46
2019-02-18T03:02:15.544Z,1.46
2019-02-18T03:04:43.984Z,1.46
2019-02-18T03:07:12.468Z,1.40
2019-02-18T03:09:41.008Z,1.36
2019-02-18T03:12:09.415Z,1.20
2019-02-18T03:14:37.837Z,1.20
2019-02-18T03:17:06.335Z,1.19
2019-02-18T03:19:34.809Z,1.33
2019-02-18T03:22:03.242Z,1.33
2019-02-18T03:24:31.743Z,1.33
2019-02-18T03:27:00.295Z,1.28
2019-02-18T03:29:52.943Z,1.19
2019-02-18T03:32:21.493Z,1.19
2019-02-18T03:34:49.903Z,1.09
2019-02-18T03:37:18.462Z,1.10
2019-02-18T03:39:46.929Z,1.16
2019-02-18T03:42:15.416Z,1.28
2019-02-18T03:44:43.886Z,1.48
2019-02-18T03:47:12.385Z,1.48
2019-02-18T03:49:40.873Z,1.54
2019-02-18T03:52:09.822Z,1.70
2019-02-18T03:54:38.232Z,1.74
2019-02-18T03:57:06.647Z,1.74
2019-02-18T03:59:35.073Z,1.81
2019-02-18T04:02:03.567Z,1.89
2019-02-18T04:04:32.135Z,1.86
2019-02-18T04:07:00.558Z,1.86
2019-02-18T04:09:28.989Z,1.88
2019-02-18T04:11:57.542Z,1.90
2019-02-18T04:14:25.953Z,1.98
2019-02-18T04:16:54.507Z,1.93
2019-02-18T04:19:23.070Z,1.92
2019-02-18T04:21:51.497Z,1.85
2019-02-18T04:24:19.968Z,1.85
2019-02-18T04:26:48.470Z,1.74
2019-02-18T04:29:16.864Z,1.71
2019-02-18T04:31:45.432Z,1.70
2019-02-18T04:34:13.909Z,1.67
2019-02-18T04:36:42.410Z,1.68
2019-02-18T04:39:10.890Z,1.66
2019-02-18T04:41:39.329Z,1.68
2019-02-18T04:44:07.747Z,1.68
2019-02-18T04:46:36.158Z,1.63
2019-02-18T04:49:04.646Z,1.58
2019-02-18T04:51:33.131Z,1.52
2019-02-18T04:54:01.560Z,1.57
2019-02-18T04:56:29.988Z,1.52
2019-02-18T04:58:58.622Z,1.43
2019-02-18T05:01:27.054Z,1.42
2019-02-18T05:03:55.546Z,1.33
2019-02-18T05:06:25.547Z,1.35
2019-02-18T05:09:04.859Z,1.36
2019-02-18T05:11:24.606Z,1.40
2019-02-18T05:13:53.125Z,1.33
2019-02-18T05:16:21.651Z,1.38
2019-02-18T05:18:50.095Z,1.41
2019-02-18T05:21:18.587Z,1.42
2019-02-18T05:23:47.244Z,1.45
2019-02-18T05:26:15.879Z,1.49
2019-02-18T05:28:44.447Z,1.49
2019-02-18T05:31:13.152Z,1.50
2019-02-18T05:33:41.784Z,1.50
2019-02-18T05:36:10.362Z,1.62
2019-02-18T05:38:38.997Z,1.68
2019-02-18T05:41:07.520Z,1.79
2019-02-18T05:43:36.194Z,1.83
2019-02-18T05:46:04.870Z,1.92
2019-02-18T05:48:34.147Z,1.98
2019-02-18T05:51:02.905Z,2.12
2019-02-18T05:53:31.545Z,2.18
2019-02-18T05:56:00.113Z,2.29
2019-02-18T05:58:28.695Z,2.46
2019-02-18T06:00:57.249Z,2.58
2019-02-18T06:03:25.820Z,2.62
2019-02-18T06:05:54.305Z,2.68
2019-02-18T06:08:22.931Z,2.92
2019-02-18T06:10:51.423Z,3.12
2019-02-18T06:13:20.044Z,3.11
2019-02-18T06:15:48.714Z,3.07
2019-02-18T06:18:17.207Z,3.15
2019-02-18T06:20:45.776Z,3.24
2019-02-18T06:23:14.383Z,3.40
2019-02-18T06:25:42.975Z,3.43
2019-02-18T06:28:11.452Z,3.41
2019-02-18T06:30:39.948Z,3.38
2019-02-18T06:33:08.499Z,3.36
2019-02-18T06:35:36.919Z,3.37
2019-02-18T06:38:05.484Z,3.51
2019-02-18T06:40:34.048Z,3.67
2019-02-18T06:43:02.665Z,3.83
2019-02-18T06:45:35.735Z,3.97
2019-02-18T06:48:08.617Z,4.28
2019-02-18T06:50:37.123Z,4.60
2019-02-18T06:53:05.612Z,4.91
2019-02-18T06:55:34.100Z,5.23
2019-02-18T06:58:20.319Z,5.39
2019-02-18T07:03:38.507Z,5.73
2019-02-18T07:08:56.179Z,5.88
2019-02-18T07:11:26.313Z,5.98
2019-02-18T07:13:54.794Z,6.45
2019-02-18T07:16:23.288Z,6.63
2019-02-18T07:18:51.775Z,6.84
2019-02-18T07:21:20.319Z,6.98
2019-02-18T07:23:49.053Z,7.14
2019-02-18T07:26:17.600Z,7.36
2019-02-18T07:28:46.014Z,7.52
2019-02-18T07:31:15.163Z,7.69
2019-02-18T07:33:44.265Z,7.93
2019-02-18T07:36:13.241Z,8.01
2019-02-18T07:38:42.317Z,8.00
2019-02-18T07:41:11.323Z,8.30
2019-02-18T07:43:40.460Z,8.55
2019-02-18T07:46:09.613Z,8.80
2019-02-18T07:48:38.619Z,8.83
2019-02-18T07:51:07.644Z,9.01
2019-02-18T07:53:36.780Z,9.24
2019-02-18T07:56:05.865Z,9.38
2019-02-18T07:58:34.888Z,9.62
2019-02-18T08:01:04.023Z,9.82
2019-02-18T08:03:33.115Z,9.88
2019-02-18T08:06:02.219Z,10.22
2019-02-18T08:08:31.236Z,10.58
2019-02-18T08:11:00.318Z,10.71
2019-02-18T08:13:29.354Z,11.01
2019-02-18T08:15:58.359Z,11.12
2019-02-18T08:18:27.528Z,11.22
2019-02-18T08:20:56.946Z,11.42
2019-02-18T08:23:26.086Z,11.54
2019-02-18T08:25:55.159Z,11.52
2019-02-18T08:28:24.242Z,11.66
2019-02-18T08:30:53.337Z,11.76
2019-02-18T08:33:22.474Z,11.80
2019-02-18T08:35:51.508Z,11.78
2019-02-18T08:38:20.738Z,12.17
2019-02-18T08:40:49.836Z,12.28
2019-02-18T08:43:18.994Z,12.42
2019-02-18T08:45:48.104Z,12.56
2019-02-18T08:48:17.117Z,12.61
2019-02-18T08:50:46.149Z,12.81
2019-02-18T08:53:15.250Z,13.06
2019-02-18T08:55:44.279Z,13.10
2019-02-18T08:58:13.369Z,13.25
2019-02-18T09:00:42.365Z,13.57
2019-02-18T09:03:11.467Z,13.22
2019-02-18T09:05:40.564Z,13.41
2019-02-18T09:08:09.589Z,13.54
2019-02-18T09:10:38.716Z,13.69
2019-02-18T09:13:07.734Z,13.61
2019-02-18T09:15:36.882Z,13.74
2019-02-18T09:18:06.049Z,13.63
2019-02-18T09:20:35.095Z,13.73
2019-02-18T09:23:08.224Z,13.84
2019-02-18T09:25:38.893Z,14.21
2019-02-18T09:28:08.048Z,14.57
2019-02-18T09:30:38.793Z,14.63
2019-02-18T09:33:07.872Z,14.63
2019-02-18T09:35:36.901Z,15.06
2019-02-18T09:38:06.146Z,15.32
2019-02-18T09:40:44.286Z,15.36
2019-02-18T09:43:06.149Z,15.26
2019-02-18T09:45:35.297Z,15.17
2019-02-18T09:48:04.398Z,15.38
2019-02-18T09:50:33.526Z,15.60
2019-02-18T09:53:02.695Z,15.91
2019-02-18T09:55:31.749Z,16.21
2019-02-18T09:58:00.935Z,15.92
2019-02-18T10:00:30.018Z,16.34
2019-02-18T10:02:59.192Z,16.41
2019-02-18T10:05:28.345Z,16.19
2019-02-18T10:07:57.483Z,15.96
2019-02-18T10:10:26.636Z,16.19
2019-02-18T10:12:55.736Z,16.19
2019-02-18T10:15:24.899Z,16.04
2019-02-18T10:17:54.050Z,16.25
2019-02-18T10:20:23.140Z,16.51
2019-02-18T10:22:52.178Z,16.91
2019-02-18T10:25:21.312Z,16.71
2019-02-18T10:27:50.505Z,16.66
2019-02-18T10:30:20.771Z,16.54
2019-02-18T10:32:49.983Z,17.11
2019-02-18T10:35:19.073Z,17.16
2019-02-18T10:37:54.885Z,17.33
2019-02-18T10:40:19.016Z,17.12
2019-02-18T10:42:48.174Z,17.47
2019-02-18T10:45:17.193Z,17.38
2019-02-18T10:47:46.251Z,17.85
2019-02-18T10:50:15.417Z,18.10
2019-02-18T10:52:44.576Z,18.34
2019-02-18T10:55:13.740Z,18.28
2019-02-18T10:57:42.823Z,17.93
2019-02-18T11:00:16.383Z,18.21
2019-02-18T11:02:45.471Z,18.74
2019-02-18T11:05:14.564Z,18.92
2019-02-18T11:07:43.722Z,18.90
2019-02-18T11:10:16.907Z,18.99
2019-02-18T11:12:47.669Z,18.98
2019-02-18T11:15:16.954Z,18.79
2019-02-18T11:17:46.447Z,18.32
2019-02-18T11:20:15.461Z,18.25
2019-02-18T11:22:44.621Z,18.59
2019-02-18T11:25:15.434Z,18.94
2019-02-18T11:27:44.433Z,19.07
2019-02-18T11:30:39.256Z,18.78
2019-02-18T11:33:08.377Z,19.25
2019-02-18T11:35:37.376Z,19.05
2019-02-18T11:38:06.451Z,19.25
2019-02-18T11:40:35.985Z,19.22
2019-02-18T11:43:05.053Z,18.80
2019-02-18T11:45:34.880Z,19.35
2019-02-18T11:48:04.118Z,19.35
2019-02-18T11:50:33.149Z,19.60
2019-02-18T11:53:02.153Z,19.76
2019-02-18T11:55:31.191Z,19.64
2019-02-18T11:58:00.272Z,19.30
2019-02-18T12:00:29.288Z,19.76
2019-02-18T12:03:03.110Z,20.02
2019-02-18T12:05:29.190Z,20.03
2019-02-18T12:07:58.288Z,20.15
2019-02-18T12:10:27.409Z,20.12
2019-02-18T12:12:56.400Z,20.30
2019-02-18T12:15:25.429Z,20.15
2019-02-18T12:17:54.527Z,20.57
2019-02-18T12:20:23.762Z,20.19
2019-02-18T12:22:52.862Z,20.58
2019-02-18T12:25:22.566Z,20.74
2019-02-18T12:27:51.736Z,20.66
2019-02-18T12:30:20.904Z,20.33
2019-02-18T12:32:49.995Z,20.57
2019-02-18T12:35:19.175Z,20.79
2019-02-18T12:37:55.235Z,20.80
2019-02-18T12:40:19.218Z,20.74
2019-02-18T12:42:48.309Z,20.66
2019-02-18T12:45:17.455Z,20.84
2019-02-18T12:47:46.739Z,20.84
2019-02-18T12:50:15.899Z,20.60
2019-02-18T12:52:45.008Z,20.08
2019-02-18T12:55:14.849Z,20.25
2019-02-18T12:57:44.223Z,20.36
2019-02-18T13:00:14.458Z,20.70
2019-02-18T13:02:45.052Z,20.83
2019-02-18T13:05:14.641Z,20.31
2019-02-18T13:07:43.799Z,19.95
2019-02-18T13:10:13.041Z,19.68
2019-02-18T13:12:42.580Z,20.07
2019-02-18T13:15:19.036Z,20.23
2019-02-18T13:17:49.878Z,20.55
2019-02-18T13:20:19.051Z,20.82
2019-02-18T13:22:48.068Z,20.30
2019-02-18T13:25:17.242Z,19.64
2019-02-18T13:27:46.631Z,18.99
2019-02-18T13:30:18.565Z,19.39
2019-02-18T13:32:47.668Z,19.34
2019-02-18T13:35:16.842Z,19.12
2019-02-18T13:37:45.929Z,19.44
2019-02-18T13:40:16.575Z,19.36
2019-02-18T13:42:45.977Z,19.46
2019-02-18T13:45:15.190Z,19.14
2019-02-18T13:47:44.258Z,19.05
2019-02-18T13:50:14.002Z,19.37
2019-02-18T13:52:43.087Z,19.57
2019-02-18T13:55:12.927Z,20.03
2019-02-18T13:57:42.367Z,19.86
2019-02-18T14:00:20.274Z,19.33
2019-02-18T14:02:50.317Z,19.64
2019-02-18T14:05:21.049Z,19.55
2019-02-18T14:07:50.118Z,20.01
2019-02-18T14:10:20.321Z,20.47
2019-02-18T14:12:49.380Z,20.57
2019-02-18T14:15:18.956Z,19.88
2019-02-18T14:17:48.053Z,19.88
2019-02-18T14:20:18.262Z,19.39
2019-02-18T14:22:47.344Z,19.32
2019-02-18T14:25:16.761Z,19.22
2019-02-18T14:27:45.815Z,19.03
2019-02-18T14:30:16.512Z,19.30
2019-02-18T14:32:45.613Z,19.43
2019-02-18T14:35:16.592Z,19.41
2019-02-18T14:37:45.735Z,18.86
2019-02-18T14:40:17.282Z,18.82
2019-02-18T14:42:46.455Z,18.72
2019-02-18T14:45:15.804Z,18.57
2019-02-18T14:47:44.822Z,18.43
2019-02-18T14:50:16.582Z,18.39
2019-02-18T14:52:45.946Z,18.37
2019-02-18T14:55:15.141Z,18.10
2019-02-18T14:57:44.237Z,18.23
2019-02-18T15:00:23.192Z,18.35
2019-02-18T15:02:54.144Z,18.42
2019-02-18T15:05:23.657Z,18.26
2019-02-18T15:07:52.665Z,18.27
2019-02-18T15:10:21.693Z,17.92
2019-02-18T15:12:50.727Z,17.76
2019-02-18T15:15:19.909Z,17.76
2019-02-18T15:17:49.070Z,17.74
2019-02-18T15:20:18.537Z,17.53
2019-02-18T15:22:47.629Z,17.47
2019-02-18T15:25:16.761Z,17.17
2019-02-18T15:27:45.780Z,16.88
2019-02-18T15:30:15.905Z,16.71
2019-02-18T15:32:45.068Z,16.66
2019-02-18T15:35:15.314Z,16.34
2019-02-18T15:37:44.540Z,16.27
2019-02-18T15:40:15.285Z,16.07
2019-02-18T15:42:44.441Z,15.84
2019-02-18T15:45:13.681Z,15.62
2019-02-18T15:47:42.776Z,15.40
2019-02-18T15:50:13.018Z,15.25
2019-02-18T15:52:42.197Z,15.06
2019-02-18T15:55:11.740Z,14.83
2019-02-18T15:57:40.927Z,14.72
2019-02-18T16:00:13.350Z,14.54
2019-02-18T16:02:42.549Z,14.47
2019-02-18T16:05:11.581Z,14.30
2019-02-18T16:07:40.706Z,14.13
2019-02-18T16:10:09.982Z,14.08
2019-02-18T16:12:39.079Z,13.92
2019-02-18T16:15:09.816Z,13.74
2019-02-18T16:17:38.896Z,13.65
2019-02-18T16:20:11.531Z,13.52
2019-02-18T16:22:40.714Z,13.40
2019-02-18T16:25:15.768Z,13.31
2019-02-18T16:27:44.859Z,13.29
2019-02-18T16:30:15.244Z,13.14
2019-02-18T16:32:44.753Z,13.05
2019-02-18T16:35:13.933Z,12.98
2019-02-18T16:37:43.473Z,12.92
2019-02-18T16:40:17.606Z,12.85
2019-02-18T16:42:46.694Z,12.76
2019-02-18T16:45:16.010Z,12.65
2019-02-18T16:47:45.235Z,12.48
2019-02-18T16:50:14.324Z,12.39
2019-02-18T16:52:43.482Z,12.27
2019-02-18T16:55:14.079Z,12.19
2019-02-18T16:57:43.098Z,12.19
2019-02-18T17:00:21.302Z,12.12
2019-02-18T17:02:51.079Z,12.11
2019-02-18T17:05:20.448Z,11.97
2019-02-18T17:07:49.625Z,11.91
2019-02-18T17:10:18.843Z,11.82
2019-02-18T17:12:48.023Z,11.71
2019-02-18T17:15:17.097Z,11.60
2019-02-18T17:17:46.375Z,11.52
2019-02-18T17:20:15.602Z,11.41
2019-02-18T17:22:44.805Z,11.36
2019-02-18T17:25:14.462Z,11.27
2019-02-18T17:27:44.006Z,11.12
2019-02-18T17:30:17.173Z,10.94
2019-02-18T17:32:46.424Z,10.86
2019-02-18T17:35:15.761Z,10.74
2019-02-18T17:37:45.004Z,10.61
2019-02-18T17:40:14.809Z,10.61
2019-02-18T17:42:45.899Z,10.49
2019-02-18T17:45:17.577Z,10.36
2019-02-18T17:47:46.813Z,10.22
2019-02-18T17:50:16.695Z,10.09
2019-02-18T17:52:46.551Z,9.97
2019-02-18T17:55:19.555Z,9.87
2019-02-18T17:57:48.718Z,9.87
2019-02-18T18:00:24.874Z,9.82
2019-02-18T18:02:53.978Z,9.75
2019-02-18T18:05:23.209Z,9.77
2019-02-18T18:07:52.450Z,9.68
2019-02-18T18:10:21.884Z,9.64
2019-02-18T18:12:51.685Z,9.56
2019-02-18T18:15:20.844Z,9.53
2019-02-18T18:17:50.012Z,9.46
2019-02-18T18:20:19.271Z,9.46
2019-02-18T18:22:48.449Z,9.42
2019-02-18T18:25:17.848Z,9.42
2019-02-18T18:27:47.112Z,9.37
2019-02-18T18:30:19.774Z,9.31
2019-02-18T18:32:48.885Z,9.25
2019-02-18T18:35:18.057Z,9.24
2019-02-18T18:37:48.589Z,9.23
2019-02-18T18:40:19.315Z,9.14
2019-02-18T18:42:48.494Z,9.06
2019-02-18T18:45:18.284Z,9.05
2019-02-18T18:47:47.523Z,9.04
2019-02-18T18:50:18.662Z,9.02
2019-02-18T18:52:48.162Z,9.06
2019-02-18T18:55:17.328Z,8.95
2019-02-18T19:00:19.757Z,8.99
2019-02-18T19:02:48.396Z,8.82
2019-02-18T19:05:17.664Z,8.69
2019-02-18T19:07:46.917Z,8.60
2019-02-18T19:10:16.073Z,8.56
2019-02-18T19:12:45.268Z,8.48
2019-02-18T19:15:15.717Z,8.43
2019-02-18T19:17:44.958Z,8.39
2019-02-18T19:20:14.508Z,8.35
2019-02-18T19:22:43.616Z,8.30
2019-02-18T19:25:12.960Z,8.30
2019-02-18T19:27:42.291Z,8.22
2019-02-18T19:30:17.485Z,8.12
2019-02-18T19:32:47.126Z,8.01
2019-02-18T19:35:16.361Z,8.00
2019-02-18T19:37:45.006Z,7.96
2019-02-18T19:40:14.873Z,7.88
2019-02-18T19:42:44.069Z,7.84
2019-02-18T19:45:15.851Z,7.76
2019-02-18T19:47:45.228Z,7.59
2019-02-18T19:50:14.451Z,7.38
2019-02-18T19:52:43.936Z,7.25
2019-02-18T19:55:12.810Z,7.32
2019-02-18T19:57:41.968Z,7.36
2019-02-18T20:00:19.251Z,7.32
2019-02-18T20:02:48.010Z,7.22
2019-02-18T20:05:16.595Z,7.21
2019-02-18T20:07:45.259Z,7.26
2019-02-18T20:10:14.436Z,7.24
2019-02-18T20:12:43.604Z,7.16
2019-02-18T20:15:16.630Z,7.12
2019-02-18T20:17:45.286Z,7.01
2019-02-18T20:20:17.439Z,6.98
2019-02-18T20:22:47.678Z,6.93
2019-02-18T20:25:16.265Z,6.96
2019-02-18T20:27:45.287Z,6.98
2019-02-18T20:30:17.664Z,6.96
2019-02-18T20:32:46.291Z,6.80
2019-02-18T20:35:14.923Z,6.72
2019-02-18T20:37:43.565Z,6.68
2019-02-18T20:40:12.293Z,6.61
2019-02-18T20:42:41.321Z,6.58
2019-02-18T20:45:12.661Z,6.50
2019-02-18T20:47:41.325Z,6.40
2019-02-18T20:50:12.027Z,6.40
2019-02-18T20:52:40.656Z,6.39
2019-02-18T20:55:11.887Z,6.37
2019-02-18T20:57:40.657Z,6.46
2019-02-18T21:00:15.758Z,6.45
2019-02-18T21:02:44.403Z,6.38
2019-02-18T21:05:13.039Z,6.31
2019-02-18T21:07:41.707Z,6.28
2019-02-18T21:10:13.424Z,6.15
2019-02-18T21:12:42.075Z,6.05
2019-02-18T21:15:10.720Z,5.99
2019-02-18T21:17:39.288Z,5.99
2019-02-18T21:20:09.999Z,6.00
2019-02-18T21:22:38.431Z,6.07
2019-02-18T21:25:08.644Z,6.13
2019-02-18T21:27:37.293Z,6.16
2019-02-18T21:30:09.037Z,6.16
2019-02-18T21:32:37.604Z,6.20
2019-02-18T21:35:06.631Z,6.25
2019-02-18T21:37:35.274Z,6.25
2019-02-18T21:40:05.267Z,6.30
2019-02-18T21:42:33.903Z,6.32
2019-02-18T21:45:02.541Z,6.33
2019-02-18T21:47:31.190Z,6.28
2019-02-18T21:49:59.852Z,6.23
2019-02-18T21:52:28.494Z,6.15
2019-02-18T21:54:57.445Z,6.11
2019-02-18T21:57:25.995Z,6.07
2019-02-18T21:59:54.558Z,5.78
2019-02-18T22:02:23.461Z,6.02
2019-02-18T22:04:52.046Z,6.04
2019-02-18T22:07:20.695Z,6.04
2019-02-18T22:09:49.649Z,6.05
2019-02-18T22:12:18.214Z,6.03
2019-02-18T22:14:46.856Z,6.04
2019-02-18T22:17:15.408Z,5.95
2019-02-18T22:19:44.039Z,5.97
2019-02-18T22:22:12.588Z,5.97
2019-02-18T22:24:41.076Z,5.86
2019-02-18T22:27:09.991Z,5.84
2019-02-18T22:29:38.466Z,5.64
2019-02-18T22:32:06.975Z,5.57
2019-02-18T22:34:35.464Z,5.60
2019-02-18T22:37:04.117Z,5.47
2019-02-18T22:39:32.683Z,5.46
2019-02-18T22:42:01.246Z,5.51
2019-02-18T22:44:30.159Z,5.57
2019-02-18T22:46:58.815Z,5.60
2019-02-18T22:49:27.407Z,5.67
2019-02-18T22:51:55.968Z,5.54
2019-02-18T22:54:24.517Z,5.42
2019-02-18T22:56:53.079Z,5.34
2019-02-18T22:59:21.543Z,5.22
2019-02-18T23:01:50.596Z,5.04
2019-02-18T23:04:19.228Z,4.90
2019-02-18T23:06:47.856Z,4.78
2019-02-18T23:09:16.485Z,4.74
2019-02-18T23:11:45.031Z,4.71
2019-02-18T23:14:13.589Z,4.68
2019-02-18T23:16:42.103Z,4.63
2019-02-18T23:19:10.573Z,4.63
2019-02-18T23:21:40.528Z,4.64
2019-02-18T23:24:09.180Z,4.67
2019-02-18T23:26:37.810Z,4.64
2019-02-18T23:29:06.444Z,4.61
2019-02-18T23:31:34.867Z,4.62
2019-02-18T23:34:03.739Z,4.53
2019-02-18T23:36:32.313Z,4.54
2019-02-18T23:39:00.881Z,4.51
2019-02-18T23:41:29.440Z,4.50
2019-02-18T23:43:58.014Z,3.95
2019-02-18T23:46:26.583Z,4.46
2019-02-18T23:48:55.147Z,4.37
2019-02-18T23:51:23.905Z,4.28
2019-02-18T23:53:52.561Z,4.15
2019-02-18T23:56:21.123Z,4.04
2019-02-18T23:58:49.752Z,4.04
